sensor_id;sensor_type;location;lat;lon;timestamp;temperature;humidity
38604;DHT22;24924;50.054;8.790;2023-09-08T00:01:25;16.60;99.90
38604;DHT22;24924;50.054;8.790;2023-09-08T00:03:51;16.60;99.90
38604;DHT22;24924;50.054;8.790;2023-09-08T00:06:17;15.30;99.90
38604;DHT22;24924;50.054;8.790;2023-09-08T00:08:42;16.50;99.90
38604;DHT22;24924;50.054;8.790;2023-09-08T00:11:09;16.50;99.90
38604;DHT22;24924;50.054;8.790;2023-09-08T00:13:34;18.20;99.90
38604;DHT22;24924;50.054;8.790;2023-09-08T00:16:00;16.20;99.90
38604;DHT22;24924;50.054;8.790;2023-09-08T00:18:26;16.60;99.90
38604;DHT22;24924;50.054;8.790;2023-09-08T00:20:52;16.30;99.90
38604;DHT22;24924;50.054;8.790;2023-09-08T00:23:17;16.40;99.90
38604;DHT22;24924;50.054;8.790;2023-09-08T00:25:43;16.40;99.90
38604;DHT22;24924;50.054;8.790;2023-09-08T00:28:09;17.00;99.90
38604;DHT22;24924;50.054;8.790;2023-09-08T00:30:34;16.30;99.90
38604;DHT22;24924;50.054;8.790;2023-09-08T00:33:00;16.30;99.90
38604;DHT22;24924;50.054;8.790;2023-09-08T00:35:26;16.00;99.90
38604;DHT22;24924;50.054;8.790;2023-09-08T00:37:52;16.20;99.90
38604;DHT22;24924;50.054;8.790;2023-09-08T00:40:17;16.20;99.90
38604;DHT22;24924;50.054;8.790;2023-09-08T00:42:43;16.20;99.90
38604;DHT22;24924;50.054;8.790;2023-09-08T00:45:09;16.20;99.90
38604;DHT22;24924;50.054;8.790;2023-09-08T00:47:35;16.10;99.90
38604;DHT22;24924;50.054;8.790;2023-09-08T00:50:03;16.20;99.90
38604;DHT22;24924;50.054;8.790;2023-09-08T00:52:29;16.60;99.90
38604;DHT22;24924;50.054;8.790;2023-09-08T00:54:58;15.10;99.90
38604;DHT22;24924;50.054;8.790;2023-09-08T00:57:24;15.70;99.90
38604;DHT22;24924;50.054;8.790;2023-09-08T00:59:50;16.20;99.90
38604;DHT22;24924;50.054;8.790;2023-09-08T01:02:16;16.70;99.90
38604;DHT22;24924;50.054;8.790;2023-09-08T01:04:43;16.10;99.90
38604;DHT22;24924;50.054;8.790;2023-09-08T01:07:09;16.10;99.90
38604;DHT22;24924;50.054;8.790;2023-09-08T01:09:36;16.40;99.90
38604;DHT22;24924;50.054;8.790;2023-09-08T01:12:04;16.40;99.90
38604;DHT22;24924;50.054;8.790;2023-09-08T01:14:31;16.20;99.90
38604;DHT22;24924;50.054;8.790;2023-09-08T01:16:57;16.10;99.90
38604;DHT22;24924;50.054;8.790;2023-09-08T01:19:23;16.00;99.90
38604;DHT22;24924;50.054;8.790;2023-09-08T01:27:46;16.00;99.90
38604;DHT22;24924;50.054;8.790;2023-09-08T01:30:14;16.00;99.90
38604;DHT22;24924;50.054;8.790;2023-09-08T01:32:40;15.20;99.90
38604;DHT22;24924;50.054;8.790;2023-09-08T01:35:07;15.90;99.90
38604;DHT22;24924;50.054;8.790;2023-09-08T01:37:33;15.80;99.90
38604;DHT22;24924;50.054;8.790;2023-09-08T01:39:58;15.60;99.90
38604;DHT22;24924;50.054;8.790;2023-09-08T01:42:25;17.10;99.90
38604;DHT22;24924;50.054;8.790;2023-09-08T01:44:51;15.90;99.90
38604;DHT22;24924;50.054;8.790;2023-09-08T01:47:17;15.80;99.90
38604;DHT22;24924;50.054;8.790;2023-09-08T01:49:43;15.80;99.90
38604;DHT22;24924;50.054;8.790;2023-09-08T01:52:09;15.70;99.90
38604;DHT22;24924;50.054;8.790;2023-09-08T01:54:34;15.70;99.90
38604;DHT22;24924;50.054;8.790;2023-09-08T01:57:00;13.50;99.90
38604;DHT22;24924;50.054;8.790;2023-09-08T01:59:26;15.90;99.90
38604;DHT22;24924;50.054;8.790;2023-09-08T02:01:52;15.60;99.90
38604;DHT22;24924;50.054;8.790;2023-09-08T02:04:17;15.60;99.90
38604;DHT22;24924;50.054;8.790;2023-09-08T02:09:13;15.40;99.90
38604;DHT22;24924;50.054;8.790;2023-09-08T02:11:39;15.50;99.90
38604;DHT22;24924;50.054;8.790;2023-09-08T02:14:05;15.50;99.90
38604;DHT22;24924;50.054;8.790;2023-09-08T02:16:31;15.40;99.90
38604;DHT22;24924;50.054;8.790;2023-09-08T02:18:56;15.40;99.90
38604;DHT22;24924;50.054;8.790;2023-09-08T02:21:22;14.90;99.90
38604;DHT22;24924;50.054;8.790;2023-09-08T02:23:48;15.40;99.90
38604;DHT22;24924;50.054;8.790;2023-09-08T02:26:14;15.40;99.90
38604;DHT22;24924;50.054;8.790;2023-09-08T02:28:40;15.40;99.90
38604;DHT22;24924;50.054;8.790;2023-09-08T02:31:05;15.40;99.90
38604;DHT22;24924;50.054;8.790;2023-09-08T02:33:31;15.20;99.90
38604;DHT22;24924;50.054;8.790;2023-09-08T02:36:04;16.70;99.90
38604;DHT22;24924;50.054;8.790;2023-09-08T02:38:33;15.80;99.90
38604;DHT22;24924;50.054;8.790;2023-09-08T02:40:59;15.30;99.90
38604;DHT22;24924;50.054;8.790;2023-09-08T02:43:25;15.30;99.90
38604;DHT22;24924;50.054;8.790;2023-09-08T02:45:50;13.70;99.90
38604;DHT22;24924;50.054;8.790;2023-09-08T02:48:18;15.20;99.90
38604;DHT22;24924;50.054;8.790;2023-09-08T02:53:10;15.20;99.90
38604;DHT22;24924;50.054;8.790;2023-09-08T02:55:36;15.10;99.90
38604;DHT22;24924;50.054;8.790;2023-09-08T02:58:02;14.90;99.90
38604;DHT22;24924;50.054;8.790;2023-09-08T03:00:28;15.60;99.90
38604;DHT22;24924;50.054;8.790;2023-09-08T03:02:54;15.00;99.90
38604;DHT22;24924;50.054;8.790;2023-09-08T03:05:20;15.00;99.90
38604;DHT22;24924;50.054;8.790;2023-09-08T03:07:49;15.80;99.90
38604;DHT22;24924;50.054;8.790;2023-09-08T03:10:15;14.90;99.90
38604;DHT22;24924;50.054;8.790;2023-09-08T03:12:41;14.90;99.90
38604;DHT22;24924;50.054;8.790;2023-09-08T03:15:07;15.90;99.90
38604;DHT22;24924;50.054;8.790;2023-09-08T03:17:33;15.00;99.90
38604;DHT22;24924;50.054;8.790;2023-09-08T03:20:00;15.00;99.90
38604;DHT22;24924;50.054;8.790;2023-09-08T03:22:26;15.00;99.90
38604;DHT22;24924;50.054;8.790;2023-09-08T03:24:52;14.90;99.90
38604;DHT22;24924;50.054;8.790;2023-09-08T03:27:18;14.80;99.90
38604;DHT22;24924;50.054;8.790;2023-09-08T03:29:44;14.80;99.90
38604;DHT22;24924;50.054;8.790;2023-09-08T03:32:10;14.20;99.90
38604;DHT22;24924;50.054;8.790;2023-09-08T03:34:38;14.70;99.90
38604;DHT22;24924;50.054;8.790;2023-09-08T03:37:06;14.70;99.90
38604;DHT22;24924;50.054;8.790;2023-09-08T03:39:32;14.70;99.90
38604;DHT22;24924;50.054;8.790;2023-09-08T03:41:57;14.60;99.90
38604;DHT22;24924;50.054;8.790;2023-09-08T03:44:23;14.60;99.90
38604;DHT22;24924;50.054;8.790;2023-09-08T03:46:49;15.90;99.90
38604;DHT22;24924;50.054;8.790;2023-09-08T03:49:15;14.60;99.90
38604;DHT22;24924;50.054;8.790;2023-09-08T03:51:40;15.20;99.90
38604;DHT22;24924;50.054;8.790;2023-09-08T03:54:06;14.60;99.90
38604;DHT22;24924;50.054;8.790;2023-09-08T03:56:33;14.00;99.90
38604;DHT22;24924;50.054;8.790;2023-09-08T03:58:59;14.60;99.90
38604;DHT22;24924;50.054;8.790;2023-09-08T04:01:24;14.50;99.90
38604;DHT22;24924;50.054;8.790;2023-09-08T04:03:50;13.60;99.90
38604;DHT22;24924;50.054;8.790;2023-09-08T04:06:16;14.40;99.90
38604;DHT22;24924;50.054;8.790;2023-09-08T04:08:42;14.80;99.90
38604;DHT22;24924;50.054;8.790;2023-09-08T04:11:08;14.40;99.90
38604;DHT22;24924;50.054;8.790;2023-09-08T04:13:34;14.40;99.90
38604;DHT22;24924;50.054;8.790;2023-09-08T04:16:00;14.60;99.90
38604;DHT22;24924;50.054;8.790;2023-09-08T04:18:25;13.90;99.90
38604;DHT22;24924;50.054;8.790;2023-09-08T04:20:51;14.10;99.90
38604;DHT22;24924;50.054;8.790;2023-09-08T04:23:17;14.40;99.90
38604;DHT22;24924;50.054;8.790;2023-09-08T04:25:43;14.30;99.90
38604;DHT22;24924;50.054;8.790;2023-09-08T04:28:08;14.40;99.90
38604;DHT22;24924;50.054;8.790;2023-09-08T04:30:34;14.40;99.90
38604;DHT22;24924;50.054;8.790;2023-09-08T04:33:00;14.80;99.90
38604;DHT22;24924;50.054;8.790;2023-09-08T04:35:26;14.40;99.90
38604;DHT22;24924;50.054;8.790;2023-09-08T04:37:52;14.80;99.90
38604;DHT22;24924;50.054;8.790;2023-09-08T04:40:19;14.30;99.90
38604;DHT22;24924;50.054;8.790;2023-09-08T04:42:45;14.30;99.90
38604;DHT22;24924;50.054;8.790;2023-09-08T04:45:11;14.30;99.90
38604;DHT22;24924;50.054;8.790;2023-09-08T04:47:37;14.30;99.90
38604;DHT22;24924;50.054;8.790;2023-09-08T04:50:04;14.30;99.90
38604;DHT22;24924;50.054;8.790;2023-09-08T04:52:30;14.30;99.90
38604;DHT22;24924;50.054;8.790;2023-09-08T04:54:56;14.30;99.90
38604;DHT22;24924;50.054;8.790;2023-09-08T04:57:21;14.30;99.90
38604;DHT22;24924;50.054;8.790;2023-09-08T04:59:47;13.50;99.90
38604;DHT22;24924;50.054;8.790;2023-09-08T05:02:13;14.20;99.90
38604;DHT22;24924;50.054;8.790;2023-09-08T05:04:39;14.30;99.90
38604;DHT22;24924;50.054;8.790;2023-09-08T05:07:05;12.50;99.90
38604;DHT22;24924;50.054;8.790;2023-09-08T05:09:30;14.20;99.90
38604;DHT22;24924;50.054;8.790;2023-09-08T05:11:56;13.10;99.90
38604;DHT22;24924;50.054;8.790;2023-09-08T05:14:25;14.20;99.90
38604;DHT22;24924;50.054;8.790;2023-09-08T05:16:51;12.20;99.90
38604;DHT22;24924;50.054;8.790;2023-09-08T05:19:22;13.50;99.90
38604;DHT22;24924;50.054;8.790;2023-09-08T05:21:51;14.20;99.90
38604;DHT22;24924;50.054;8.790;2023-09-08T05:24:17;15.10;99.90
38604;DHT22;24924;50.054;8.790;2023-09-08T05:26:43;15.00;99.90
38604;DHT22;24924;50.054;8.790;2023-09-08T05:29:09;14.30;99.90
38604;DHT22;24924;50.054;8.790;2023-09-08T05:31:35;14.40;99.90
38604;DHT22;24924;50.054;8.790;2023-09-08T05:34:01;13.30;99.90
38604;DHT22;24924;50.054;8.790;2023-09-08T05:36:27;17.20;99.90
38604;DHT22;24924;50.054;8.790;2023-09-08T05:38:55;14.60;99.90
38604;DHT22;24924;50.054;8.790;2023-09-08T05:41:21;15.40;99.90
38604;DHT22;24924;50.054;8.790;2023-09-08T05:43:47;14.70;99.90
38604;DHT22;24924;50.054;8.790;2023-09-08T05:46:13;14.80;99.90
38604;DHT22;24924;50.054;8.790;2023-09-08T05:48:40;15.40;99.90
38604;DHT22;24924;50.054;8.790;2023-09-08T05:51:06;15.00;99.90
38604;DHT22;24924;50.054;8.790;2023-09-08T05:53:32;15.70;99.90
38604;DHT22;24924;50.054;8.790;2023-09-08T05:55:59;15.10;99.90
38604;DHT22;24924;50.054;8.790;2023-09-08T05:58:25;15.20;99.90
38604;DHT22;24924;50.054;8.790;2023-09-08T06:00:53;15.40;99.90
38604;DHT22;24924;50.054;8.790;2023-09-08T06:03:19;15.40;99.90
38604;DHT22;24924;50.054;8.790;2023-09-08T06:05:45;15.50;99.90
38604;DHT22;24924;50.054;8.790;2023-09-08T06:08:11;15.60;99.90
38604;DHT22;24924;50.054;8.790;2023-09-08T06:10:40;15.80;99.90
38604;DHT22;24924;50.054;8.790;2023-09-08T06:13:06;16.70;99.90
38604;DHT22;24924;50.054;8.790;2023-09-08T06:15:33;16.00;99.90
38604;DHT22;24924;50.054;8.790;2023-09-08T06:17:59;16.10;99.90
38604;DHT22;24924;50.054;8.790;2023-09-08T06:20:25;16.30;99.90
38604;DHT22;24924;50.054;8.790;2023-09-08T06:22:53;16.40;99.90
38604;DHT22;24924;50.054;8.790;2023-09-08T06:25:19;16.50;99.90
38604;DHT22;24924;50.054;8.790;2023-09-08T06:27:45;16.60;99.90
38604;DHT22;24924;50.054;8.790;2023-09-08T06:30:11;16.70;99.90
38604;DHT22;24924;50.054;8.790;2023-09-08T06:32:40;16.90;99.90
38604;DHT22;24924;50.054;8.790;2023-09-08T06:35:06;17.00;99.90
38604;DHT22;24924;50.054;8.790;2023-09-08T06:37:36;17.30;99.90
38604;DHT22;24924;50.054;8.790;2023-09-08T06:40:03;17.50;99.90
38604;DHT22;24924;50.054;8.790;2023-09-08T06:42:28;17.60;99.90
38604;DHT22;24924;50.054;8.790;2023-09-08T06:45:05;17.80;99.90
38604;DHT22;24924;50.054;8.790;2023-09-08T06:47:31;17.90;99.90
38604;DHT22;24924;50.054;8.790;2023-09-08T06:49:58;18.10;99.90
38604;DHT22;24924;50.054;8.790;2023-09-08T06:52:23;18.20;99.90
38604;DHT22;24924;50.054;8.790;2023-09-08T06:54:50;18.40;99.90
38604;DHT22;24924;50.054;8.790;2023-09-08T06:57:18;18.60;99.90
38604;DHT22;24924;50.054;8.790;2023-09-08T06:59:45;18.70;99.90
38604;DHT22;24924;50.054;8.790;2023-09-08T07:02:11;18.70;99.90
38604;DHT22;24924;50.054;8.790;2023-09-08T07:04:37;18.80;99.90
38604;DHT22;24924;50.054;8.790;2023-09-08T07:07:03;19.10;99.90
38604;DHT22;24924;50.054;8.790;2023-09-08T07:12:04;19.20;99.90
38604;DHT22;24924;50.054;8.790;2023-09-08T07:14:31;19.40;99.90
38604;DHT22;24924;50.054;8.790;2023-09-08T07:16:57;19.50;99.90
38604;DHT22;24924;50.054;8.790;2023-09-08T07:19:23;19.50;99.90
38604;DHT22;24924;50.054;8.790;2023-09-08T07:21:49;19.70;99.90
38604;DHT22;24924;50.054;8.790;2023-09-08T07:24:15;19.80;99.90
38604;DHT22;24924;50.054;8.790;2023-09-08T07:26:41;20.00;99.90
38604;DHT22;24924;50.054;8.790;2023-09-08T07:29:08;19.90;99.90
38604;DHT22;24924;50.054;8.790;2023-09-08T07:31:40;20.00;99.90
38604;DHT22;24924;50.054;8.790;2023-09-08T07:34:07;20.20;99.90
38604;DHT22;24924;50.054;8.790;2023-09-08T07:36:35;20.30;99.90
38604;DHT22;24924;50.054;8.790;2023-09-08T07:39:01;20.40;99.90
38604;DHT22;24924;50.054;8.790;2023-09-08T07:41:27;20.50;99.90
38604;DHT22;24924;50.054;8.790;2023-09-08T07:43:53;20.60;99.90
38604;DHT22;24924;50.054;8.790;2023-09-08T07:46:23;20.80;99.90
38604;DHT22;24924;50.054;8.790;2023-09-08T07:48:49;20.90;99.90
38604;DHT22;24924;50.054;8.790;2023-09-08T07:51:15;21.10;99.90
38604;DHT22;24924;50.054;8.790;2023-09-08T07:53:41;21.30;99.90
38604;DHT22;24924;50.054;8.790;2023-09-08T07:56:07;21.30;99.90
38604;DHT22;24924;50.054;8.790;2023-09-08T07:58:32;21.50;99.90
38604;DHT22;24924;50.054;8.790;2023-09-08T08:00:58;21.60;99.90
38604;DHT22;24924;50.054;8.790;2023-09-08T08:03:24;21.70;99.90
38604;DHT22;24924;50.054;8.790;2023-09-08T08:05:50;21.80;99.90
38604;DHT22;24924;50.054;8.790;2023-09-08T08:08:16;22.20;99.90
38604;DHT22;24924;50.054;8.790;2023-09-08T08:10:42;22.20;99.90
38604;DHT22;24924;50.054;8.790;2023-09-08T08:13:08;22.20;99.90
38604;DHT22;24924;50.054;8.790;2023-09-08T08:15:39;22.40;99.90
38604;DHT22;24924;50.054;8.790;2023-09-08T08:18:06;22.50;99.90
38604;DHT22;24924;50.054;8.790;2023-09-08T08:20:32;22.80;99.90
38604;DHT22;24924;50.054;8.790;2023-09-08T08:23:04;22.90;99.90
38604;DHT22;24924;50.054;8.790;2023-09-08T08:25:31;23.10;99.90
38604;DHT22;24924;50.054;8.790;2023-09-08T08:27:58;23.50;99.90
38604;DHT22;24924;50.054;8.790;2023-09-08T08:30:25;23.50;99.90
38604;DHT22;24924;50.054;8.790;2023-09-08T08:32:51;24.00;99.90
38604;DHT22;24924;50.054;8.790;2023-09-08T08:35:19;24.20;99.90
38604;DHT22;24924;50.054;8.790;2023-09-08T08:37:45;24.30;99.90
38604;DHT22;24924;50.054;8.790;2023-09-08T08:40:12;24.30;99.90
38604;DHT22;24924;50.054;8.790;2023-09-08T08:42:38;24.50;99.90
38604;DHT22;24924;50.054;8.790;2023-09-08T08:45:05;24.60;99.90
38604;DHT22;24924;50.054;8.790;2023-09-08T08:47:31;24.90;99.90
38604;DHT22;24924;50.054;8.790;2023-09-08T08:49:57;25.00;99.90
38604;DHT22;24924;50.054;8.790;2023-09-08T08:52:28;25.10;99.90
38604;DHT22;24924;50.054;8.790;2023-09-08T08:54:54;25.20;99.90
38604;DHT22;24924;50.054;8.790;2023-09-08T08:57:21;25.50;99.90
38604;DHT22;24924;50.054;8.790;2023-09-08T08:59:47;25.40;99.90
38604;DHT22;24924;50.054;8.790;2023-09-08T09:02:15;25.70;99.90
38604;DHT22;24924;50.054;8.790;2023-09-08T09:04:41;25.70;99.90
38604;DHT22;24924;50.054;8.790;2023-09-08T09:07:08;25.90;99.90
38604;DHT22;24924;50.054;8.790;2023-09-08T09:09:34;25.90;99.90
38604;DHT22;24924;50.054;8.790;2023-09-08T09:12:00;26.10;99.90
38604;DHT22;24924;50.054;8.790;2023-09-08T09:14:31;26.00;99.90
38604;DHT22;24924;50.054;8.790;2023-09-08T09:16:58;26.10;99.90
38604;DHT22;24924;50.054;8.790;2023-09-08T09:19:24;26.10;99.90
38604;DHT22;24924;50.054;8.790;2023-09-08T09:21:55;26.00;99.90
38604;DHT22;24924;50.054;8.790;2023-09-08T09:24:35;26.30;99.90
38604;DHT22;24924;50.054;8.790;2023-09-08T09:27:05;26.20;99.90
38604;DHT22;24924;50.054;8.790;2023-09-08T09:29:33;26.10;99.90
38604;DHT22;24924;50.054;8.790;2023-09-08T09:32:03;26.30;99.90
38604;DHT22;24924;50.054;8.790;2023-09-08T09:34:30;26.50;99.90
38604;DHT22;24924;50.054;8.790;2023-09-08T09:36:55;26.60;99.90
38604;DHT22;24924;50.054;8.790;2023-09-08T09:39:24;26.50;99.90
38604;DHT22;24924;50.054;8.790;2023-09-08T09:41:54;26.60;99.90
38604;DHT22;24924;50.054;8.790;2023-09-08T09:44:21;26.60;99.90
38604;DHT22;24924;50.054;8.790;2023-09-08T09:46:47;26.80;99.90
38604;DHT22;24924;50.054;8.790;2023-09-08T09:49:15;26.80;99.90
38604;DHT22;24924;50.054;8.790;2023-09-08T09:51:44;27.00;99.90
38604;DHT22;24924;50.054;8.790;2023-09-08T09:54:09;27.10;99.90
38604;DHT22;24924;50.054;8.790;2023-09-08T09:56:37;27.20;99.90
38604;DHT22;24924;50.054;8.790;2023-09-08T09:59:04;27.20;99.90
38604;DHT22;24924;50.054;8.790;2023-09-08T10:01:31;27.30;99.90
38604;DHT22;24924;50.054;8.790;2023-09-08T10:03:58;27.40;99.90
38604;DHT22;24924;50.054;8.790;2023-09-08T10:06:25;27.60;99.90
38604;DHT22;24924;50.054;8.790;2023-09-08T10:11:20;27.40;99.90
38604;DHT22;24924;50.054;8.790;2023-09-08T10:13:50;27.40;99.90
38604;DHT22;24924;50.054;8.790;2023-09-08T10:16:18;27.40;99.90
38604;DHT22;24924;50.054;8.790;2023-09-08T10:18:47;27.30;99.90
38604;DHT22;24924;50.054;8.790;2023-09-08T10:21:16;27.60;99.90
38604;DHT22;24924;50.054;8.790;2023-09-08T10:23:54;27.90;99.90
38604;DHT22;24924;50.054;8.790;2023-09-08T10:26:22;27.80;99.60
38604;DHT22;24924;50.054;8.790;2023-09-08T10:28:50;27.90;99.90
38604;DHT22;24924;50.054;8.790;2023-09-08T10:31:24;27.90;99.90
38604;DHT22;24924;50.054;8.790;2023-09-08T10:33:50;28.20;99.90
38604;DHT22;24924;50.054;8.790;2023-09-08T10:36:16;28.30;99.60
38604;DHT22;24924;50.054;8.790;2023-09-08T10:38:42;28.40;99.70
38604;DHT22;24924;50.054;8.790;2023-09-08T10:43:56;28.50;99.90
38604;DHT22;24924;50.054;8.790;2023-09-08T10:46:25;28.40;99.80
38604;DHT22;24924;50.054;8.790;2023-09-08T10:49:05;28.40;99.90
38604;DHT22;24924;50.054;8.790;2023-09-08T10:51:36;28.50;99.90
38604;DHT22;24924;50.054;8.790;2023-09-08T10:54:03;28.70;99.20
38604;DHT22;24924;50.054;8.790;2023-09-08T10:56:54;28.80;99.80
38604;DHT22;24924;50.054;8.790;2023-09-08T10:59:24;28.80;99.90
38604;DHT22;24924;50.054;8.790;2023-09-08T11:01:54;28.80;98.80
38604;DHT22;24924;50.054;8.790;2023-09-08T11:04:21;29.00;99.90
38604;DHT22;24924;50.054;8.790;2023-09-08T11:06:47;28.90;99.00
38604;DHT22;24924;50.054;8.790;2023-09-08T11:09:14;29.10;99.90
38604;DHT22;24924;50.054;8.790;2023-09-08T11:11:41;29.30;98.80
38604;DHT22;24924;50.054;8.790;2023-09-08T11:14:07;32.80;99.90
38604;DHT22;24924;50.054;8.790;2023-09-08T11:16:33;29.30;99.60
38604;DHT22;24924;50.054;8.790;2023-09-08T11:19:00;29.30;98.50
38604;DHT22;24924;50.054;8.790;2023-09-08T11:21:30;29.30;98.40
38604;DHT22;24924;50.054;8.790;2023-09-08T11:24:05;29.40;98.90
38604;DHT22;24924;50.054;8.790;2023-09-08T11:26:34;29.40;97.80
38604;DHT22;24924;50.054;8.790;2023-09-08T11:29:00;29.40;99.10
38604;DHT22;24924;50.054;8.790;2023-09-08T11:31:26;29.50;99.90
38604;DHT22;24924;50.054;8.790;2023-09-08T11:33:55;29.30;98.20
38604;DHT22;24924;50.054;8.790;2023-09-08T11:36:21;29.50;99.50
38604;DHT22;24924;50.054;8.790;2023-09-08T11:38:46;29.50;98.80
38604;DHT22;24924;50.054;8.790;2023-09-08T11:41:13;29.50;98.70
38604;DHT22;24924;50.054;8.790;2023-09-08T11:43:38;29.70;99.60
38604;DHT22;24924;50.054;8.790;2023-09-08T11:46:05;29.70;98.50
38604;DHT22;24924;50.054;8.790;2023-09-08T11:48:31;29.70;98.20
38604;DHT22;24924;50.054;8.790;2023-09-08T11:50:57;29.80;99.20
38604;DHT22;24924;50.054;8.790;2023-09-08T11:53:24;29.90;97.80
38604;DHT22;24924;50.054;8.790;2023-09-08T11:55:50;29.80;98.50
38604;DHT22;24924;50.054;8.790;2023-09-08T11:58:18;30.10;96.60
38604;DHT22;24924;50.054;8.790;2023-09-08T12:00:44;30.20;97.90
38604;DHT22;24924;50.054;8.790;2023-09-08T12:03:15;30.10;97.40
38604;DHT22;24924;50.054;8.790;2023-09-08T12:05:43;30.10;97.60
38604;DHT22;24924;50.054;8.790;2023-09-08T12:08:10;30.50;96.70
38604;DHT22;24924;50.054;8.790;2023-09-08T12:10:40;30.50;95.90
38604;DHT22;24924;50.054;8.790;2023-09-08T12:13:06;30.60;96.90
38604;DHT22;24924;50.054;8.790;2023-09-08T12:15:42;30.30;95.30
38604;DHT22;24924;50.054;8.790;2023-09-08T12:18:12;30.30;95.10
38604;DHT22;24924;50.054;8.790;2023-09-08T12:20:39;30.30;95.40
38604;DHT22;24924;50.054;8.790;2023-09-08T12:23:19;30.40;95.40
38604;DHT22;24924;50.054;8.790;2023-09-08T12:25:50;30.40;96.80
38604;DHT22;24924;50.054;8.790;2023-09-08T12:28:18;30.70;96.50
38604;DHT22;24924;50.054;8.790;2023-09-08T12:30:44;30.60;96.90
38604;DHT22;24924;50.054;8.790;2023-09-08T12:33:10;30.50;97.00
38604;DHT22;24924;50.054;8.790;2023-09-08T12:35:36;30.80;96.90
38604;DHT22;24924;50.054;8.790;2023-09-08T12:38:04;31.00;95.50
38604;DHT22;24924;50.054;8.790;2023-09-08T12:40:37;31.00;96.00
38604;DHT22;24924;50.054;8.790;2023-09-08T12:43:04;31.20;96.10
38604;DHT22;24924;50.054;8.790;2023-09-08T12:45:30;31.30;95.50
38604;DHT22;24924;50.054;8.790;2023-09-08T12:47:59;31.00;94.20
38604;DHT22;24924;50.054;8.790;2023-09-08T12:50:25;31.40;94.80
38604;DHT22;24924;50.054;8.790;2023-09-08T12:52:51;31.50;94.70
38604;DHT22;24924;50.054;8.790;2023-09-08T12:55:17;31.60;95.20
38604;DHT22;24924;50.054;8.790;2023-09-08T12:57:43;31.50;92.90
38604;DHT22;24924;50.054;8.790;2023-09-08T13:00:09;31.50;94.80
38604;DHT22;24924;50.054;8.790;2023-09-08T13:02:35;31.60;94.20
38604;DHT22;24924;50.054;8.790;2023-09-08T13:05:03;31.80;94.40
38604;DHT22;24924;50.054;8.790;2023-09-08T13:07:29;31.90;92.50
38604;DHT22;24924;50.054;8.790;2023-09-08T13:09:55;31.90;93.90
38604;DHT22;24924;50.054;8.790;2023-09-08T13:12:21;32.10;93.50
38604;DHT22;24924;50.054;8.790;2023-09-08T13:14:47;32.30;94.00
38604;DHT22;24924;50.054;8.790;2023-09-08T13:17:13;32.40;92.80
38604;DHT22;24924;50.054;8.790;2023-09-08T13:19:41;32.40;92.90
38604;DHT22;24924;50.054;8.790;2023-09-08T13:22:08;32.50;93.20
38604;DHT22;24924;50.054;8.790;2023-09-08T13:24:33;32.50;92.70
38604;DHT22;24924;50.054;8.790;2023-09-08T13:27:00;33.10;90.60
38604;DHT22;24924;50.054;8.790;2023-09-08T13:29:26;33.20;91.00
38604;DHT22;24924;50.054;8.790;2023-09-08T13:31:53;33.00;91.50
38604;DHT22;24924;50.054;8.790;2023-09-08T13:34:23;33.00;92.10
38604;DHT22;24924;50.054;8.790;2023-09-08T13:36:48;32.80;91.90
38604;DHT22;24924;50.054;8.790;2023-09-08T13:39:15;32.70;91.90
38604;DHT22;24924;50.054;8.790;2023-09-08T13:42:00;33.00;90.80
38604;DHT22;24924;50.054;8.790;2023-09-08T13:44:26;33.20;92.00
38604;DHT22;24924;50.054;8.790;2023-09-08T13:46:53;33.40;90.10
38604;DHT22;24924;50.054;8.790;2023-09-08T13:49:22;33.30;90.70
38604;DHT22;24924;50.054;8.790;2023-09-08T13:51:48;33.50;90.90
38604;DHT22;24924;50.054;8.790;2023-09-08T13:54:16;33.30;92.20
38604;DHT22;24924;50.054;8.790;2023-09-08T13:56:42;33.40;92.30
38604;DHT22;24924;50.054;8.790;2023-09-08T13:59:09;33.60;92.40
38604;DHT22;24924;50.054;8.790;2023-09-08T14:01:35;33.70;91.90
38604;DHT22;24924;50.054;8.790;2023-09-08T14:04:01;33.60;90.30
38604;DHT22;24924;50.054;8.790;2023-09-08T14:06:28;33.90;91.30
38604;DHT22;24924;50.054;8.790;2023-09-08T14:08:54;34.30;89.40
38604;DHT22;24924;50.054;8.790;2023-09-08T14:11:22;34.20;91.20
38604;DHT22;24924;50.054;8.790;2023-09-08T14:13:47;34.10;90.20
38604;DHT22;24924;50.054;8.790;2023-09-08T14:16:14;34.20;90.30
38604;DHT22;24924;50.054;8.790;2023-09-08T14:18:40;34.20;85.90
38604;DHT22;24924;50.054;8.790;2023-09-08T14:21:06;34.30;88.30
38604;DHT22;24924;50.054;8.790;2023-09-08T14:23:33;34.40;88.50
38604;DHT22;24924;50.054;8.790;2023-09-08T14:26:06;34.00;87.50
38604;DHT22;24924;50.054;8.790;2023-09-08T14:28:32;33.60;88.90
38604;DHT22;24924;50.054;8.790;2023-09-08T14:30:58;33.70;88.80
38604;DHT22;24924;50.054;8.790;2023-09-08T14:33:24;34.10;87.20
38604;DHT22;24924;50.054;8.790;2023-09-08T14:35:50;34.40;86.20
38604;DHT22;24924;50.054;8.790;2023-09-08T14:38:22;34.50;84.10
38604;DHT22;24924;50.054;8.790;2023-09-08T14:40:55;34.60;87.80
38604;DHT22;24924;50.054;8.790;2023-09-08T14:43:21;34.50;87.70
38604;DHT22;24924;50.054;8.790;2023-09-08T14:45:47;34.60;88.10
38604;DHT22;24924;50.054;8.790;2023-09-08T14:48:13;34.90;84.50
38604;DHT22;24924;50.054;8.790;2023-09-08T14:50:39;34.70;86.30
38604;DHT22;24924;50.054;8.790;2023-09-08T14:53:05;34.60;85.80
38604;DHT22;24924;50.054;8.790;2023-09-08T14:55:32;34.80;82.60
38604;DHT22;24924;50.054;8.790;2023-09-08T14:57:58;35.40;81.60
38604;DHT22;24924;50.054;8.790;2023-09-08T15:00:24;35.40;81.70
38604;DHT22;24924;50.054;8.790;2023-09-08T15:02:50;35.80;82.50
38604;DHT22;24924;50.054;8.790;2023-09-08T15:05:16;35.30;81.60
38604;DHT22;24924;50.054;8.790;2023-09-08T15:07:41;35.70;79.70
38604;DHT22;24924;50.054;8.790;2023-09-08T15:10:08;35.70;80.70
38604;DHT22;24924;50.054;8.790;2023-09-08T15:12:34;35.50;81.30
38604;DHT22;24924;50.054;8.790;2023-09-08T15:14:59;35.80;82.20
38604;DHT22;24924;50.054;8.790;2023-09-08T15:17:25;36.20;80.90
38604;DHT22;24924;50.054;8.790;2023-09-08T15:19:51;36.10;81.20
38604;DHT22;24924;50.054;8.790;2023-09-08T15:22:17;35.70;84.20
38604;DHT22;24924;50.054;8.790;2023-09-08T15:24:43;35.40;86.00
38604;DHT22;24924;50.054;8.790;2023-09-08T15:27:09;35.30;84.10
38604;DHT22;24924;50.054;8.790;2023-09-08T15:29:35;35.50;82.50
38604;DHT22;24924;50.054;8.790;2023-09-08T15:32:01;35.80;82.70
38604;DHT22;24924;50.054;8.790;2023-09-08T15:34:28;35.80;82.20
38604;DHT22;24924;50.054;8.790;2023-09-08T15:36:53;35.10;80.70
38604;DHT22;24924;50.054;8.790;2023-09-08T15:39:19;35.40;81.40
38604;DHT22;24924;50.054;8.790;2023-09-08T15:41:45;35.90;79.70
38604;DHT22;24924;50.054;8.790;2023-09-08T15:44:12;35.30;79.60
38604;DHT22;24924;50.054;8.790;2023-09-08T15:46:40;35.30;81.30